Flight Track Log - Related Links

Times and Time Zones

All times are in EDT time to prevent confusion due to time zone crossing. See the AAY655 flight status page for this flight to view local times or setup timezone preferences in your user account.

Time Position Orientation Groundspeed Altitude Reporting Facility
EDT Latitude Longitude Course Direction KTS MPH feet Rate Location/Type
Fri 07:50:08 PM 43.1167 -78.9667 324° Northwest 144 166 1,000  Level Buffalo TRACON
Fri 07:50:50 PM 43.1333 -78.9833 324° Northwest 172 198 2,700 1,941 Climbing Buffalo TRACON
Fri 07:51:50 PM 43.1500 -78.9333 65° Northeast 219 252 4,300 2,255 Climbing Buffalo TRACON
Fri 07:53:19 PM 43.0892 -78.8067 123° Southeast 271 312 8,300 2,424 Climbing Cleveland Center
Fri 07:54:21 PM 43.0131 -78.8008 177° South 286 329 10,400 1,790 Climbing Cleveland Center
Fri 07:55:23 PM 42.9256 -78.8361 196° South 327 376 12,000 2,195 Climbing Cleveland Center
Fri 07:56:24 PM 42.8081 -78.8897 199° South 374 430 14,900 2,537 Climbing Cleveland Center
Fri 07:57:26 PM 42.7089 -78.9372 199° South 377 434 17,200 2,081 Climbing Cleveland Center
Fri 07:58:28 PM 42.6047 -78.9864 199° South 391 450 19,200 1,790 Climbing Cleveland Center
Fri 07:59:30 PM 42.4958 -79.0378 199° South 413 475 20,900 1,742 Climbing Cleveland Center
Fri 08:00:32 PM 42.3731 -79.0961 199° South 427 491 22,800 1,756 Climbing Cleveland Center
Fri 08:01:33 PM 42.2575 -79.1492 199° South 437 503 24,500 1,951 Climbing Cleveland Center
Fri 08:02:35 PM 42.1436 -79.2042 200° South 437 503 26,800 1,694 Climbing Cleveland Center
Fri 08:03:37 PM 42.0322 -79.2583 200° South 432 497 28,000 1,258 Climbing Cleveland Center
Fri 08:04:39 PM 41.9186 -79.3114 199° South 434 499 29,400 1,403 Climbing Cleveland Center
Fri 08:05:41 PM 41.7869 -79.3736 199° South 428 493 30,900 1,113 Climbing Cleveland Center
Fri 08:06:43 PM 41.6767 -79.4250 199° South 425 489 31,700 267 Climbing Cleveland Center
Fri 08:09:48 PM 41.3386 -79.5811 199° South 427 491 32,000 73 Climbing Cleveland Center
Fri 08:10:50 PM 41.2128 -79.6403 199° South 419 482 32,000  Level Cleveland Center
Fri 08:11:52 PM 41.0986 -79.6925 199° South 418 481 32,000  Level Cleveland Center
Fri 08:12:54 PM 40.9886 -79.7431 199° South 418 481 32,000  Level Cleveland Center
Fri 08:13:55 PM 40.8772 -79.7933 199° South 419 482 32,000  Level Cleveland Center
Fri 08:14:57 PM 40.7664 -79.8431 199° South 420 483 32,000  Level Cleveland Center
Fri 08:15:00 PM 40.6996 -79.8703 199° South  Level FlightAware Approximate
Fri 08:15:59 PM 40.6547 -79.8931 199° South 421 484 32,000  Level Cleveland Center
Fri 08:17:01 PM 40.5439 -79.9425 199° South 421 484 32,000  Level Cleveland Center
Fri 08:18:03 PM 40.4322 -79.9917 199° South 419 482 32,000  Level Cleveland Center
Fri 08:19:05 PM 40.3200 -80.0422 199° South 415 478 32,000  Level Cleveland Center
Fri 08:20:07 PM 40.2097 -80.0908 199° South 414 476 32,000  Level Cleveland Center
Fri 08:21:09 PM 40.0778 -80.1492 199° South 413 475 32,000  Level Cleveland Center
Fri 08:22:11 PM 39.9678 -80.1967 198° South 414 476 32,000  Level Cleveland Center
Fri 08:23:13 PM 39.8581 -80.2419 198° South 413 475 32,000  Level Cleveland Center
Fri 08:24:14 PM 39.7483 -80.2892 198° South 413 475 32,000  Level Cleveland Center
Fri 08:25:16 PM 39.6372 -80.3364 198° South 417 480 32,000  Level Cleveland Center
Fri 08:26:18 PM 39.5275 -80.3867 199° South 418 481 32,000  Level Cleveland Center
Fri 08:27:20 PM 39.4167 -80.4353 199° South 419 482 32,000  Level Cleveland Center
Fri 08:28:22 PM 39.2831 -80.4922 198° South 421 484 32,000  Level Cleveland Center
Fri 08:29:24 PM 39.1739 -80.5397 199° South 419 482 32,000  Level Cleveland Center
Fri 08:30:26 PM 39.0625 -80.5878 199° South 420 483 32,000  Level Cleveland Center
Fri 08:31:34 PM 38.9294 -80.6439 198° South 419 482 32,000  Level Indianapolis Center
Fri 08:32:36 PM 38.8200 -80.6894 198° South 418 481 32,000  Level Indianapolis Center
Fri 08:33:37 PM 38.7100 -80.7375 199° South 415 478 32,000  Level Indianapolis Center
Fri 08:34:39 PM 38.5981 -80.7842 198° South 415 478 32,000  Level Indianapolis Center
Fri 08:35:41 PM 38.4869 -80.8297 198° South 415 478 32,000  Level Indianapolis Center
Fri 08:36:42 PM 38.3750 -80.8775 199° South 416 479 32,000  Level Indianapolis Center
Fri 08:37:44 PM 38.2619 -80.9239 198° South 419 482 32,000  Level Indianapolis Center
Fri 08:38:46 PM 38.1511 -80.9708 198° South 419 482 32,000  Level Indianapolis Center
Fri 08:39:47 PM 38.0386 -81.0161 198° South 419 482 32,000  Level Indianapolis Center
Fri 08:40:49 PM 37.9064 -81.0708 198° South 419 482 32,000  Level Indianapolis Center
Fri 08:41:50 PM 37.8008 -81.1131 198° South 419 482 32,000  Level Indianapolis Center
Fri 08:42:52 PM 37.6836 -81.1211 183° South 434 499 32,000  Level Indianapolis Center
Fri 08:43:54 PM 37.5369 -81.1181 179° South 447 514 32,000  Level Indianapolis Center
Fri 08:44:55 PM 37.4158 -81.1161 179° South 447 514 32,000  Level Indianapolis Center
Fri 08:45:57 PM 37.2936 -81.1139 179° South 447 514 32,000  Level Indianapolis Center
Fri 08:46:58 PM 37.1717 -81.1117 179° South 448 516 32,000 496 Level Indianapolis Center
Fri 08:47:58 PM 37.0264 -81.1114 180° South 450 518 33,000 800 Climbing Atlanta Center
Fri 08:48:58 PM 36.9075 -81.1081 179° South 445 512 33,600 500 Climbing Atlanta Center
Fri 08:49:58 PM 36.7844 -81.1047 179° South 440 506 34,000 200 Climbing Atlanta Center
Fri 08:50:58 PM 36.6758 -81.1011 178° South 434 499 34,000  Level Atlanta Center
Fri 08:51:58 PM 36.5508 -81.1003 180° South 440 506 34,000  Level Atlanta Center
Fri 08:52:58 PM 36.4278 -81.0997 180° South 445 512 34,000  Level Atlanta Center
Fri 08:53:58 PM 36.3025 -81.0967 179° South 445 512 34,000  Level Atlanta Center
Fri 08:54:58 PM 36.1753 -81.0961 180° South 445 512 34,000  Level Atlanta Center
Fri 08:55:58 PM 36.0500 -81.0931 179° South 450 518 34,000  Level Atlanta Center
Fri 08:56:58 PM 35.9269 -81.0922 180° South 450 518 34,000  Level Atlanta Center
Fri 08:57:58 PM 35.8058 -81.0892 179° South 444 511 34,000  Level Atlanta Center
Fri 08:58:58 PM 35.6703 -81.0836 178° South 444 511 34,000  Level Atlanta Center
Fri 08:59:58 PM 35.5450 -81.0831 180° South 444 511 34,000  Level Atlanta Center
Fri 09:00:58 PM 35.4197 -81.0800 179° South 444 511 34,000  Level Atlanta Center
Fri 09:01:58 PM 35.2944 -81.0794 180° South 444 511 34,000  Level Atlanta Center
Fri 09:02:58 PM 35.1714 -81.0761 179° South 444 511 34,000  Level Atlanta Center
Fri 09:04:38 PM 34.9728 -81.0736 179° South 439 505 34,000  Level Jacksonville Center
Fri 09:05:38 PM 34.8497 -81.0736 180° South 444 511 34,000  Level Jacksonville Center
Fri 09:06:38 PM 34.7267 -81.0714 179° South 449 517 34,000  Level Jacksonville Center
Fri 09:07:38 PM 34.6014 -81.0664 178° South 449 517 34,000  Level Jacksonville Center
Fri 09:08:38 PM 34.4742 -81.0667 180° South 449 517 34,000  Level Jacksonville Center
Fri 09:09:38 PM 34.3489 -81.0667 180° South 449 517 34,000  Level Jacksonville Center
Fri 09:10:38 PM 34.2300 -81.0642 179° South 442 509 34,000  Level Jacksonville Center
Fri 09:11:38 PM 34.1069 -81.0692 182° South 436 502 34,000  Level Jacksonville Center
Fri 09:12:38 PM 33.9839 -81.0692 180° South 442 509 34,000  Level Jacksonville Center
Fri 09:13:38 PM 33.8608 -81.0694 180° South 442 509 34,000  Level Jacksonville Center
Fri 09:14:38 PM 33.7231 -81.0747 182° South 442 509 34,000  Level Jacksonville Center
Fri 09:15:38 PM 33.6083 -81.0744 180° South 447 514 34,000 -50 Level Jacksonville Center
Fri 09:16:38 PM 33.4853 -81.0769 181° South 452 520 33,900  Descending Jacksonville Center
Fri 09:17:38 PM 33.3600 -81.0797 181° South 452 520 34,000  Climbing Jacksonville Center
Fri 09:18:38 PM 33.2328 -81.0772 179° South 452 520 33,900  Descending Jacksonville Center
Fri 09:19:38 PM 33.1075 -81.0797 181° South 457 526 34,000 50 Climbing Jacksonville Center
Fri 09:20:38 PM 32.9822 -81.0800 180° South 457 526 34,000  Level Jacksonville Center
Fri 09:21:38 PM 32.8508 -81.0825 181° South 462 532 34,000  Level Jacksonville Center
Fri 09:22:38 PM 32.7236 -81.0850 181° South 462 532 34,000  Level Jacksonville Center
Fri 09:23:38 PM 32.5983 -81.0850 180° South 455 524 34,000  Level Jacksonville Center
Fri 09:24:38 PM 32.4586 -81.0878 181° South 460 529 34,000 -50 Level Jacksonville Center
Fri 09:25:38 PM 32.3394 -81.0853 179° South 460 529 33,900  Descending Jacksonville Center
Fri 09:26:38 PM 32.2081 -81.0878 181° South 465 535 34,000  Climbing Jacksonville Center
Fri 09:27:38 PM 32.0786 -81.0881 180° South 470 541 33,900 -50 Descending Jacksonville Center
Fri 09:28:38 PM 31.9492 -81.0906 181° South 470 541 33,900 50 Level Jacksonville Center
Fri 09:29:38 PM 31.8197 -81.0906 180° South 470 541 34,000 50 Climbing Jacksonville Center
Fri 09:30:38 PM 31.6778 -81.0933 181° South 470 541 34,000  Level Jacksonville Center
Fri 09:31:38 PM 31.5483 -81.0933 180° South 470 541 34,000  Level Jacksonville Center
Fri 09:32:38 PM 31.4314 -81.0933 180° South 468 539 34,000  Level Jacksonville Center
Fri 09:33:38 PM 31.2997 -81.0933 180° South 469 540 34,000 -400 Level Jacksonville Center
Fri 09:34:38 PM 31.1725 -81.0983 182° South 469 540 33,200 -900 Descending Jacksonville Center
Fri 09:35:38 PM 31.0453 -81.0983 180° South 469 540 32,200 -1,100 Descending Jacksonville Center
Fri 09:36:38 PM 30.9158 -81.0983 180° South 464 534 31,000 -1,200 Descending Jacksonville Center
Fri 09:37:38 PM 30.7864 -81.1008 181° South 459 528 29,800 -1,300 Descending Jacksonville Center
Fri 09:38:38 PM 30.6589 -81.1031 181° South 459 528 28,400 -1,350 Descending Jacksonville Center
Fri 09:39:38 PM 30.5233 -81.1033 180° South 466 536 27,100 -1,400 Descending Jacksonville Center
Fri 09:40:38 PM 30.3981 -81.1056 181° South 461 531 25,600 -1,400 Descending Jacksonville Center
Fri 09:41:38 PM 30.2750 -81.1056 180° South 456 525 24,300 -800 Descending Jacksonville Center
Fri 09:42:38 PM 30.1581 -81.1053 180° South 444 511 24,000 -500 Descending Jacksonville Center
Fri 09:43:38 PM 30.0369 -81.1100 182° South 436 502 23,300 -1,100 Descending Jacksonville Center
Fri 09:44:38 PM 29.9200 -81.1072 179° South 431 496 21,800 -2,000 Descending Jacksonville Center
Fri 09:45:38 PM 29.8053 -81.1117 182° South 419 482 19,300 -2,769 Descending Jacksonville Center
Fri 09:46:35 PM 29.6864 -81.1139 181° South 398 458 16,400 -2,800 Descending Jacksonville Center
Fri 09:46:38 PM 29.6947 -81.1161 347° North 413 475 16,500 -2,500 Climbing Jacksonville Center
Fri 09:46:47 PM 29.6694 -81.1142 176° South 398 458 15,900 -3,600 Descending Jacksonville Center
Fri 09:47:38 PM 29.5881 -81.1133 179° South 398 458 12,900 -3,541 Descending Jacksonville Center
Fri 09:47:48 PM 29.5653 -81.1161 186° South 381 438 12,300 -1,900 Descending Jacksonville Center
Fri 09:48:38 PM 29.4881 -81.1153 179° South 379 436 11,000 -1,500 Descending Jacksonville Center
Fri 09:48:48 PM 29.4567 -81.1158 181° South 354 407 10,800 -800 Descending Jacksonville Center
Fri 09:49:38 PM 29.3942 -81.1169 181° South 357 411 10,200 -436 Descending Jacksonville Center
Fri 09:50:38 PM 29.3025 -81.1281 186° South 340 391 10,000 -650 Descending Jacksonville Center
Fri 09:51:38 PM 29.2272 -81.1317 182° South 308 354 8,900 -1,500 Descending Jacksonville Center
Fri 09:52:38 PM 29.1544 -81.1450 189° South 288 331 7,000 -1,950 Descending Jacksonville Center
Fri 09:53:38 PM 29.0858 -81.1581 189° South 268 308 5,000 -1,050 Descending Jacksonville Center
Fri 09:54:38 PM 29.0150 -81.1783 194° South 263 303 4,900 -50 Descending Jacksonville Center
Fri 09:55:38 PM 28.9547 -81.1911 191° South 244 281 4,900 -250 Level Jacksonville Center
Fri 09:56:38 PM 28.8986 -81.2089 196° South 230 265 4,400 -923 Descending Jacksonville Center
Fri 09:57:35 PM 28.8667 -81.2500 228° Southwest 185 213 3,100 -1,385 Descending Orlando TRACON
Fri 09:58:35 PM 28.8500 -81.3167 254° West 187 215 1,700 -750 Descending Orlando TRACON
Fri 09:59:35 PM 28.8000 -81.3167 180° South 151 174 1,600 -400 Descending Orlando TRACON
Fri 10:00:35 PM 28.7833 -81.3000 139° Southeast 131 151 900 -700 Descending Orlando TRACON
Fri 10:03:00 PM 28.7667 -81.2333 199° South  Level FlightAware Approximate
Fri 10:10:00 PM 28.7770 -81.2349 199° South  Level Estimated
Fri 10:11:00 PM 28.7770 -81.2349 199° South  Level Estimated
Fri 10:12:00 PM 28.7770 -81.2349 199° South  Level Estimated

Login

Don't have an account? Register now (free) for customized features, flight alerts, and more!